METAR Data
IDs: Format: Raw Decoded Include TAF

Data at: 0241 UTC 29 May 2022

LIBA 290155Z /////KT CAVOK 19/16 Q1002 RMK SCT SCT100 VIS MIN 9999 WIND THR11 /////KT WIND THR29 /////KT BLU

TAF LIBA 290200Z 2903/2912 29010KT CAVOK B 2904/2906 9999 FEW030 SCT050
  TEMPO 2907/2909 29015G25KT 7000 SHRA FEW025CB SCT040


No METAR found for LIBC
No TAF found for LIBC

LIBD 290220Z 27006KT CAVOK 19/18 Q1002

TAF LIBD 282300Z 2900/2924 27005KT CAVOK
  BECMG 2912/2914 08010KT
  BECMG 2916/2918 18006KT


No METAR found for LIBF
No TAF found for LIBF

No METAR found for LIBG
No TAF found for LIBG

LIBP 290220Z AUTO 24004KT 9999 BKN130/// BKN180/// 18/16 Q1006 REDZ

TAF LIBP 282300Z 2900/2924 VRB04KT 9999 FEW020
  BECMG 2909/2911 07010KT
  BECMG 2919/2921 VRB05KT


LIBR 290150Z 15003KT 120V180 CAVOK 19/18 Q1002

TAF LIBR 282300Z 2900/2924 VRB05KT CAVOK
  BECMG 2904/2906 17012KT
  PROB40
  TEMPO 2909/2913 TSRA


LIBV 290155Z VRB02KT CAVOK 12/09 Q1002 RMK SKC VIS MIN 9999 WIND THR32 VRB03KT WIND THR14 VRB02KT BLU

TAF LIBV 290200Z 2903/2912 18007KT CAVOK
  BECMG 2903/2905 5000 BR SCT010 BKN035
  TEMPO 2906/2911 SHRA FEW015CB BKN020


LICA 290220Z AUTO VRB02KT 9999 -RA OVC099/// 17/17 Q1004 RETS

TAF LICA 282300Z 2900/2924 25012KT 9999 BKN020
  TEMPO 2900/2913 4000 TSRA BKN010
  BECMG 2916/2918 VRB05KT


LICC 290220Z 26006KT CAVOK 17/15 Q1004

TAF LICC 282300Z 2900/2924 26008KT 9999 FEW050 SCT100
  BECMG 2908/2910 08012KT
  BECMG 2919/2921 27007KT


LICD 290220Z AUTO 31012KT 9999 BKN023/// 21/16 Q1007

TAF LICD 282300Z 2900/2924 31020KT 9999 FEW030
  BECMG 2910/2912 25013KT
  BECMG 2915/2917 19010KT


No METAR found for LICG
No TAF found for LICG

LICJ 290220Z 18007KT CAVOK 18/15 Q1005

TAF LICJ 282300Z 2900/2924 20010KT 9999 FEW030
  BECMG 2910/2912 26016KT
  BECMG 2918/2920 20015KT


LICR 290220Z AUTO 35007KT 9999 BKN096/// 18/16 Q1004

TAF LICR 282300Z 2900/2924 35015KT 9999 FEW040
  PROB40
  TEMPO 2900/2904 TSRA


LICT 290155Z 15004KT 9999 FEW016 SCT025 18/16 Q1005 RMK SCT VIS MIN 9999 WIND THR13 19004KT BLU

TAF LICT 290200Z 2903/2912 30005KT 9999 FEW020
  BECMG 2907/2909 29012KT


LICZ 290155Z 27003KT 8000 FEW100 17/17 Q1004 RMK FEW VIS MIN 8000 WIND THR28 28003KT WIND THR10 30002KT A2966 BLU

TAF LICZ 282300Z 2900/2924 27010KT 9999 SCT060
  BECMG 2911/2913 09010KT
  BECMG 2918/2920 27008KT


LIEA 290150Z 21008KT CAVOK 19/18 Q1006

TAF LIEA 282300Z 2900/2924 25012KT CAVOK
  BECMG 2918/2920 19006KT


LIEE 290220Z 01012KT CAVOK 18/16 Q1007

TAF LIEE 282300Z 2900/2924 34014KT CAVOK

LIED 290155Z 34003KT CAVOK 17/17 Q1006 RMK SKC VIS MIN 9999 WIND THR35 03002KT WIND THR17 31002KT BLU

TAF LIED 290200Z 2903/2912 34005KT CAVOK
  BECMG 2910/2912 33017G27KT


LIEO 290220Z 21015KT CAVOK 20/14 Q1003

TAF LIEO 282300Z 2900/2924 25015KT CAVOK
  TEMPO 2900/2906 25015G30KT


LIPR 290220Z AUTO 03008KT 9999 -RA OVC019/// 17/15 Q1007

TAF LIPR 282300Z 2900/2924 08011KT 9999 BKN020
  TEMPO 2900/2912 4000 SHRA
  BECMG 2915/2917 29006KT


LIPY 290220Z AUTO VRB02KT 9999 BKN054/// 19/15 Q1006

TAF LIPY 282300Z 2900/2924 07010KT 9999 BKN020
  TEMPO 2904/2918 4000 SHRA
  BECMG 2916/2918 VRB05KT


LIRA 290120Z 08005KT CAVOK 21/12 Q1004

TAF COR LIRA 290239Z 2900/2924 VRB05KT CAVOK
  BECMG 2909/2911 23013KT
  BECMG 2918/2920 17006KT


LIRE 290155Z 05002KT 9999 FEW010 19/16 Q1003 RMK FEW VIS MIN 9999 WIND THR13 06003KT WIND THR31 /////KT BLU

TAF LIRE 290200Z 2903/2912 VRB03KT CAVOK
  TEMPO 2903/2906 6000 SCT010 SCT050
  BECMG 2908/2910 22012KT 9999 SCT015


LIRF 290220Z 03005KT 9999 SCT020 19/14 Q1003 NOSIG

TAF LIRF 282300Z 2900/3006 VRB05KT 9999 FEW030
  BECMG 2908/2910 23015KT
  BECMG 2918/2920 17007KT


No METAR found for LIRG
No TAF found for LIRG

No METAR found for LIRH
No TAF found for LIRH

No METAR found for LIRL
No TAF found for LIRL

LIRM 290155Z 29003KT 4000 BR FEW025 SCT070 17/17 Q1003 RMK SCT VIS MIN 4000 WIND THR06 34003KT GRN

TAF LIRM 290200Z 2903/2912 VRB03KT 8000 FEW018 SCT070
  TEMPO 2903/2906 5000 BR SCT015 SCT060
  TEMPO 2903/2904 1500 BR BKN007
  BECMG 2909/2911 22012KT


LIRN 290220Z VRB02KT 8000 FEW020 20/19 Q1004 NOSIG

TAF LIRN 282300Z 2900/2924 VRB05KT 9999 FEW030
  BECMG 2909/2911 21011KT
  BECMG 2916/2918 VRB05KT


LIRP 290215Z 12008KT CAVOK 19/16 Q1003

TAF LIRP 282300Z 2900/2924 10008KT 9999 FEW050
  PROB30 2900/2909 11015KT 5000 TSRA FEW030CB SCT040
  BECMG 2909/2911 27008KT
  BECMG 2917/2919 11008KT


LIRQ 290220Z 25004KT 220V320 CAVOK 19/14 Q1005

TAF LIRQ 282300Z 2900/2924 04014KT 9999 SCT050
  BECMG 2919/2921 04004KT


LIRS 290155Z 06007KT CAVOK 20/17 Q1003 RMK BKN FEW080 BKN200 VIS MIN 9999 WIND THR03 07005KT WIND THR21 07007KT BLU

TAF LIRS 290200Z 2903/2912 08005KT CAVOK
  TEMPO 2903/2906 9999 SCT015 SCT060
  BECMG 2909/2911 22010KT BKN030


LIRZ 290220Z AUTO 03008KT 9999 NCD 17/15 Q1005

TAF LIRZ 282300Z 2900/2924 04010KT 9999 FEW050
  TEMPO 2913/2922 4000 TSRA BKN010


LMML 290215Z 29012KT CAVOK 19/17 Q1005 NOSIG

TAF LMML 282300Z 2900/2924 27015KT 9999 BKN013
  TEMPO 2900/2906 7000 SHRA BKN007 BKN013TCU
  PROB30
  TEMPO 2900/2906 VRB20G30KT 3000 TSRA BKN007 BKN013CB
  BECMG 2905/2908 FEW016


DTTA 290230Z 22006KT 190V260 9999 SCT026 21/10 Q1008

TAF DTTA 282300Z 2900/2924 27020G33KT 9999 SCT026
  BECMG 2902/2904 27012KT
  BECMG 2913/2915 33015KT
  BECMG 2915/2917 01005KT


DTTJ 290230Z 33009KT 9999 FEW026 24/13 Q1009 NOSIG

TAF DTTJ 282300Z 2900/2924 23005KT 9999 FEW026
  BECMG 2913/2915 12015KT
  BECMG 2921/2923 18010KT